createdAt,value
2018-02-16T00:01:56.995Z,38.73
2018-02-16T00:04:25.744Z,36.70
2018-02-16T00:06:53.736Z,49.03
2018-02-16T00:09:21.880Z,39.40
2018-02-16T00:11:49.928Z,47.07
2018-02-16T00:14:17.938Z,44.27
2018-02-16T00:16:46.191Z,34.63
2018-02-16T00:19:14.197Z,35.43
2018-02-16T00:21:43.246Z,39.67
2018-02-16T00:24:11.385Z,33.20
2018-02-16T00:26:39.398Z,48.23
2018-02-16T00:29:07.408Z,42.30
2018-02-16T00:31:35.669Z,36.77
2018-02-16T00:34:03.671Z,40.40
2018-02-16T00:36:31.699Z,44.80
2018-02-16T00:38:59.843Z,60.80
2018-02-16T00:41:28.590Z,40.00
2018-02-16T00:43:56.597Z,44.33
2018-02-16T00:46:25.504Z,45.53
2018-02-16T00:48:53.522Z,38.10
2018-02-16T00:51:21.529Z,44.40
2018-02-16T00:53:50.396Z,40.13
2018-02-16T00:56:18.410Z,38.67
2018-02-16T00:58:46.426Z,39.83
2018-02-16T01:01:14.592Z,40.30
2018-02-16T01:03:42.618Z,39.97
2018-02-16T01:06:11.353Z,42.87
2018-02-16T01:08:39.625Z,33.90
2018-02-16T01:11:07.678Z,46.63
2018-02-16T01:13:35.689Z,35.83
2018-02-16T01:16:03.854Z,33.13
2018-02-16T01:18:31.984Z,37.57
2018-02-16T01:21:00.066Z,37.07
2018-02-16T01:23:28.194Z,45.17
2018-02-16T01:25:56.192Z,39.70
2018-02-16T01:28:24.936Z,45.70
2018-02-16T01:30:53.065Z,36.10
2018-02-16T01:33:21.064Z,41.67
2018-02-16T01:35:49.056Z,47.77
2018-02-16T01:38:17.180Z,36.73
2018-02-16T01:40:45.265Z,38.97
2018-02-16T01:43:13.264Z,35.77
2018-02-16T01:45:41.414Z,37.67
2018-02-16T01:48:09.430Z,32.00
2018-02-16T01:50:37.438Z,35.73
2018-02-16T01:53:06.322Z,44.40
2018-02-16T01:55:35.086Z,36.60
2018-02-16T01:58:03.099Z,43.10
2018-02-16T02:00:31.232Z,52.33
2018-02-16T02:02:59.231Z,31.87
2018-02-16T02:05:27.978Z,38.47
2018-02-16T02:07:56.114Z,45.37
2018-02-16T02:10:24.153Z,45.43
2018-02-16T02:12:52.895Z,56.60
2018-02-16T02:15:21.270Z,42.03
2018-02-16T02:17:49.268Z,35.83
2018-02-16T02:20:17.428Z,37.93
2018-02-16T02:22:45.569Z,40.17
2018-02-16T02:25:13.576Z,37.77
2018-02-16T02:27:41.591Z,44.73
2018-02-16T02:30:10.462Z,34.70
2018-02-16T02:32:38.491Z,45.23
2018-02-16T02:35:06.502Z,37.07
2018-02-16T02:37:34.628Z,37.20
2018-02-16T02:40:02.647Z,34.10
2018-02-16T02:42:30.763Z,37.00
2018-02-16T02:44:58.904Z,58.70
2018-02-16T02:47:26.896Z,37.60
2018-02-16T02:49:55.650Z,45.57
2018-02-16T02:52:23.782Z,34.73
2018-02-16T02:54:51.788Z,42.67
2018-02-16T02:57:19.783Z,33.70
2018-02-16T02:59:47.937Z,42.40
2018-02-16T03:02:15.946Z,32.53
2018-02-16T03:04:44.710Z,43.97
2018-02-16T03:07:12.871Z,40.13
2018-02-16T03:09:40.877Z,33.63
2018-02-16T03:12:09.681Z,32.30
2018-02-16T03:14:37.812Z,39.73
2018-02-16T03:17:05.819Z,38.17
2018-02-16T03:19:34.582Z,41.63
2018-02-16T03:22:02.948Z,33.80
2018-02-16T03:24:30.959Z,35.73
2018-02-16T03:26:59.700Z,44.90
2018-02-16T03:29:27.831Z,51.47
2018-02-16T03:31:55.915Z,39.83
2018-02-16T03:34:23.912Z,43.00
2018-02-16T03:36:52.041Z,37.40
2018-02-16T03:39:20.786Z,42.13
2018-02-16T03:41:48.820Z,39.60
2018-02-16T03:44:16.952Z,36.20
2018-02-16T03:46:44.964Z,54.57
2018-02-16T03:49:12.972Z,39.47
2018-02-16T03:51:41.124Z,40.77
2018-02-16T03:54:09.133Z,39.40
2018-02-16T03:56:37.154Z,41.27
2018-02-16T03:59:05.293Z,39.23
2018-02-16T04:01:34.118Z,39.50
2018-02-16T04:04:02.127Z,40.67
2018-02-16T04:06:30.265Z,38.60
2018-02-16T04:08:58.320Z,36.53
2018-02-16T04:11:41.940Z,42.10
2018-02-16T04:14:16.104Z,37.87
2018-02-16T04:16:44.366Z,36.57
2018-02-16T04:19:12.383Z,37.70
2018-02-16T04:21:40.530Z,35.77
2018-02-16T04:24:08.807Z,35.73
2018-02-16T04:26:36.803Z,31.50
2018-02-16T04:29:04.809Z,34.97
2018-02-16T04:31:33.754Z,35.73
2018-02-16T04:34:01.776Z,34.60
2018-02-16T04:36:30.530Z,40.33
2018-02-16T04:38:58.673Z,34.40
2018-02-16T04:41:26.743Z,36.60
2018-02-16T04:43:54.744Z,35.93
2018-02-16T04:46:22.886Z,33.37
2018-02-16T04:48:50.908Z,31.37
2018-02-16T04:51:19.042Z,31.97
2018-02-16T04:53:47.164Z,41.03
2018-02-16T04:56:15.912Z,37.17
2018-02-16T04:58:43.913Z,38.93
2018-02-16T05:01:12.042Z,40.13
2018-02-16T05:03:40.036Z,35.00
2018-02-16T05:06:08.032Z,36.97
2018-02-16T05:08:36.171Z,35.07
2018-02-16T05:11:04.190Z,43.03
2018-02-16T05:13:32.937Z,45.37
2018-02-16T05:16:01.064Z,44.53
2018-02-16T05:18:29.808Z,51.33
2018-02-16T05:20:57.850Z,35.63
2018-02-16T05:23:26.002Z,41.00
2018-02-16T05:25:54.890Z,50.50
2018-02-16T05:28:23.629Z,39.37
2018-02-16T05:30:51.767Z,45.97
2018-02-16T05:33:19.777Z,35.93
2018-02-16T05:35:47.780Z,36.87
2018-02-16T05:38:16.651Z,32.10
2018-02-16T05:40:44.648Z,31.93
2018-02-16T05:43:13.402Z,34.00
2018-02-16T05:45:41.532Z,32.77
2018-02-16T05:48:10.358Z,21.10
2018-02-16T05:50:38.364Z,30.43
2018-02-16T05:53:07.274Z,26.63
2018-02-16T05:55:36.106Z,22.47
2018-02-16T05:58:04.117Z,24.17
2018-02-16T06:00:32.288Z,29.27
2018-02-16T06:03:00.317Z,30.33
2018-02-16T06:05:28.337Z,28.73
2018-02-16T06:07:56.464Z,25.13
2018-02-16T06:10:24.476Z,23.90
2018-02-16T06:12:52.848Z,27.67
2018-02-16T06:15:20.986Z,39.73
2018-02-16T06:17:48.989Z,24.23
2018-02-16T06:20:17.033Z,21.93
2018-02-16T06:22:45.188Z,28.23
2018-02-16T06:25:13.184Z,31.17
2018-02-16T06:27:41.307Z,34.03
2018-02-16T06:30:10.176Z,29.97
2018-02-16T06:45:35.558Z,27.17
2018-02-16T06:48:03.555Z,28.90
2018-02-16T06:50:31.550Z,28.73
2018-02-16T06:53:00.429Z,40.10
2018-02-16T06:55:29.178Z,25.60
2018-02-16T06:57:57.168Z,34.83
2018-02-16T07:00:25.312Z,23.53
2018-02-16T07:02:53.313Z,26.43
2018-02-16T07:05:21.323Z,32.33
2018-02-16T07:07:50.217Z,31.87
2018-02-16T07:10:19.137Z,29.70
2018-02-16T07:12:47.145Z,28.87
2018-02-16T07:15:15.290Z,29.37
2018-02-16T07:17:43.302Z,28.53
2018-02-16T07:20:12.694Z,30.10
2018-02-16T07:22:40.962Z,41.53
2018-02-16T07:25:08.970Z,31.77
2018-02-16T07:27:37.860Z,29.33
2018-02-16T07:30:06.973Z,42.17
2018-02-16T07:32:35.724Z,47.87
2018-02-16T07:35:03.785Z,35.63
2018-02-16T07:37:31.934Z,32.03
2018-02-16T07:39:59.945Z,37.50
2018-02-16T07:42:27.954Z,38.77
2018-02-16T07:44:56.178Z,45.77
2018-02-16T07:47:24.445Z,48.50
2018-02-16T07:49:52.678Z,53.47
2018-02-16T07:52:20.907Z,50.27
2018-02-16T07:54:48.910Z,52.87
2018-02-16T07:57:17.673Z,39.63
2018-02-16T07:59:45.809Z,39.63
2018-02-16T08:02:13.878Z,45.50
2018-02-16T08:04:41.887Z,48.03
2018-02-16T08:07:10.004Z,47.47
2018-02-16T08:09:38.753Z,40.67
2018-02-16T08:12:06.881Z,52.33
2018-02-16T08:14:35.030Z,55.33
2018-02-16T08:17:03.792Z,58.87
2018-02-16T08:19:31.805Z,44.93
2018-02-16T08:22:00.737Z,55.03
2018-02-16T08:24:28.732Z,60.30
2018-02-16T08:26:56.731Z,54.47
2018-02-16T08:29:25.597Z,30.33
2018-02-16T08:31:53.818Z,46.10
2018-02-16T08:34:21.836Z,42.00
2018-02-16T08:36:49.982Z,26.53
2018-02-16T08:39:17.994Z,32.73
2018-02-16T08:41:46.104Z,31.13
2018-02-16T08:44:14.232Z,36.97
2018-02-16T08:46:42.407Z,34.03
2018-02-16T08:49:10.418Z,36.87
2018-02-16T08:51:39.362Z,41.17
2018-02-16T08:54:07.370Z,41.10
2018-02-16T08:56:36.117Z,43.77
2018-02-16T08:59:04.262Z,32.17
2018-02-16T09:01:32.257Z,29.30
2018-02-16T09:04:00.232Z,33.70
2018-02-16T09:06:28.368Z,34.37
2018-02-16T09:08:56.402Z,37.33
2018-02-16T09:11:24.529Z,35.80
2018-02-16T09:13:52.662Z,32.60
2018-02-16T09:16:21.411Z,31.77
2018-02-16T09:18:49.404Z,39.00
2018-02-16T09:21:17.549Z,34.23
2018-02-16T09:23:45.546Z,43.30
2018-02-16T09:26:13.561Z,32.87
2018-02-16T09:28:42.437Z,32.63
2018-02-16T09:31:11.188Z,27.73
2018-02-16T09:33:39.333Z,38.27
2018-02-16T09:36:09.190Z,30.77
2018-02-16T09:38:37.200Z,39.77
2018-02-16T09:41:05.208Z,31.43
2018-02-16T09:43:33.328Z,29.23
2018-02-16T09:46:02.082Z,30.20
2018-02-16T09:48:30.076Z,34.10
2018-02-16T09:50:58.211Z,32.97
2018-02-16T09:53:26.212Z,28.70
2018-02-16T09:55:54.230Z,33.17
2018-02-16T09:58:22.503Z,27.67
2018-02-16T10:00:50.585Z,44.77
2018-02-16T10:03:18.583Z,38.37
2018-02-16T10:05:46.714Z,31.57
2018-02-16T10:08:15.474Z,35.33
2018-02-16T10:10:43.502Z,31.43
2018-02-16T10:13:11.687Z,33.20
2018-02-16T10:15:39.713Z,29.40
2018-02-16T10:18:08.579Z,29.00
2018-02-16T10:20:36.730Z,35.77
2018-02-16T10:23:04.736Z,29.80
2018-02-16T10:25:32.746Z,25.70
2018-02-16T10:28:00.872Z,37.17
2018-02-16T10:30:28.880Z,27.60
2018-02-16T10:32:56.970Z,35.57
2018-02-16T10:35:25.105Z,40.53
2018-02-16T10:37:53.865Z,28.63
2018-02-16T10:40:21.868Z,33.83
2018-02-16T10:42:50.758Z,25.90
2018-02-16T10:45:19.515Z,29.37
2018-02-16T10:47:47.530Z,27.73
2018-02-16T10:50:16.412Z,26.13
2018-02-16T10:52:45.168Z,24.73
2018-02-16T10:55:13.174Z,29.50
2018-02-16T10:57:42.033Z,30.00
2018-02-16T11:00:10.360Z,24.30
2018-02-16T11:02:54.884Z,26.63
2018-02-16T11:05:34.504Z,31.40
2018-02-16T14:18:35.910Z,33.70
2018-02-16T14:21:07.217Z,32.43
2018-02-16T14:23:37.152Z,42.50
2018-02-16T14:26:06.922Z,31.47
2018-02-16T14:28:35.619Z,36.30
2018-02-16T14:31:04.605Z,34.20
2018-02-16T14:33:32.716Z,34.27
2018-02-16T14:36:00.729Z,30.60
2018-02-16T14:38:29.373Z,36.60
2018-02-16T14:40:57.948Z,41.73
2018-02-16T14:43:25.968Z,36.30
2018-02-16T14:45:54.108Z,36.13
2018-02-16T14:48:25.618Z,40.50
2018-02-16T14:50:55.420Z,38.00
2018-02-16T14:53:23.423Z,37.50
2018-02-16T14:55:51.432Z,35.90
2018-02-16T14:58:20.296Z,42.83
2018-02-16T15:00:48.423Z,36.33
2018-02-16T15:03:16.470Z,30.67
2018-02-16T15:05:45.347Z,33.67
2018-02-16T15:08:13.352Z,34.40
2018-02-16T15:10:41.357Z,29.43
2018-02-16T15:13:09.527Z,37.53
2018-02-16T15:15:37.542Z,37.43
2018-02-16T15:18:05.544Z,35.90
2018-02-16T15:20:33.677Z,41.90
2018-02-16T15:23:01.696Z,38.23
2018-02-16T15:25:29.704Z,42.57
2018-02-16T15:27:57.882Z,36.60
2018-02-16T15:30:25.880Z,29.70
2018-02-16T15:32:54.637Z,44.93
2018-02-16T15:35:22.770Z,33.50
2018-02-16T15:37:50.794Z,40.87
2018-02-16T15:40:18.929Z,45.80
2018-02-16T15:42:47.070Z,45.50
2018-02-16T15:45:15.819Z,38.80
2018-02-16T15:47:43.827Z,36.30
2018-02-16T15:50:12.737Z,38.63
2018-02-16T15:52:41.548Z,42.10
2018-02-16T15:55:09.555Z,32.70
2018-02-16T15:57:37.706Z,37.40
2018-02-16T16:00:05.734Z,37.47
2018-02-16T16:02:34.554Z,41.57
2018-02-16T16:05:02.706Z,33.40
2018-02-16T16:07:31.462Z,41.73
2018-02-16T16:09:59.470Z,44.50
2018-02-16T16:12:28.731Z,46.90
2018-02-16T16:14:59.694Z,40.47
2018-02-16T16:17:28.444Z,46.67
2018-02-16T16:19:56.573Z,45.87
2018-02-16T16:22:24.602Z,46.07
2018-02-16T16:24:52.613Z,46.07
2018-02-16T16:27:21.504Z,46.93
2018-02-16T16:29:50.279Z,36.50
2018-02-16T16:32:19.094Z,38.40
2018-02-16T16:34:47.230Z,47.27
2018-02-16T16:37:15.992Z,48.17
2018-02-16T16:39:44.024Z,36.13
2018-02-16T16:42:12.351Z,40.03
2018-02-16T16:44:40.366Z,39.40
2018-02-16T16:47:09.125Z,49.33
2018-02-16T16:49:37.247Z,49.53
2018-02-16T16:52:05.374Z,49.30
2018-02-16T16:54:33.382Z,44.27
2018-02-16T16:57:01.520Z,51.40
2018-02-16T16:59:29.531Z,52.17
2018-02-16T17:01:57.621Z,45.83
2018-02-16T17:04:25.761Z,48.00
2018-02-16T17:06:54.535Z,45.30
2018-02-16T17:09:22.542Z,40.50
2018-02-16T17:11:50.756Z,41.97
2018-02-16T17:14:18.755Z,44.00
2018-02-16T17:16:46.787Z,43.40
2018-02-16T17:19:14.934Z,51.93
2018-02-16T17:21:43.008Z,37.30
2018-02-16T17:24:11.018Z,40.73
2018-02-16T17:26:39.169Z,40.47
2018-02-16T17:29:07.250Z,43.93
2018-02-16T17:31:35.293Z,37.43
2018-02-16T17:34:03.449Z,59.67
2018-02-16T17:36:32.218Z,50.27
2018-02-16T17:39:00.253Z,41.03
2018-02-16T17:41:28.433Z,37.67
2018-02-16T17:43:56.598Z,56.30
2018-02-16T17:46:24.614Z,51.73
2018-02-16T17:48:52.878Z,46.10
2018-02-16T17:51:21.040Z,50.30
2018-02-16T17:53:49.064Z,49.00
2018-02-16T17:56:17.931Z,49.03
2018-02-16T17:58:45.946Z,47.57
2018-02-16T18:01:14.049Z,63.30
2018-02-16T18:03:42.265Z,57.07
2018-02-16T18:06:11.060Z,39.47
2018-02-16T18:08:39.117Z,47.00
2018-02-16T18:11:07.296Z,52.40
2018-02-16T18:13:35.326Z,59.57
2018-02-16T18:16:03.383Z,52.40
2018-02-16T18:18:31.525Z,42.40
2018-02-16T18:21:00.272Z,40.10
2018-02-16T18:23:28.308Z,44.27
2018-02-16T18:25:56.443Z,48.13
2018-02-16T18:28:24.444Z,41.13
2018-02-16T18:30:53.261Z,42.47
2018-02-16T18:33:21.400Z,38.33
2018-02-16T18:35:50.155Z,41.87
2018-02-16T18:38:18.265Z,36.03
2018-02-16T18:40:47.161Z,42.03
2018-02-16T18:43:15.992Z,42.53
2018-02-16T18:45:44.142Z,37.40
2018-02-16T18:48:12.270Z,45.03
2018-02-16T18:50:40.261Z,43.63
2018-02-16T18:53:09.019Z,45.33
2018-02-16T18:55:37.151Z,33.93
2018-02-16T18:58:05.194Z,45.83
2018-02-16T19:00:33.965Z,37.00
2018-02-16T19:03:02.101Z,49.20
2018-02-16T19:05:30.096Z,47.97
2018-02-16T19:07:58.111Z,43.10
2018-02-16T19:10:26.992Z,41.87
2018-02-16T19:12:55.733Z,33.10
2018-02-16T19:15:23.746Z,35.70
2018-02-16T19:17:52.638Z,51.87
2018-02-16T19:20:21.449Z,42.43
2018-02-16T19:22:50.192Z,42.50
2018-02-16T19:25:18.338Z,30.43
2018-02-16T19:27:46.340Z,39.57
2018-02-16T19:30:14.358Z,42.97
2018-02-16T19:32:42.506Z,35.63
2018-02-16T19:35:11.469Z,42.40
2018-02-16T19:37:39.640Z,48.27
2018-02-16T19:40:07.843Z,38.43
2018-02-16T19:42:35.860Z,48.70
2018-02-16T19:45:03.922Z,49.00
2018-02-16T19:47:32.078Z,41.50
2018-02-16T19:50:00.860Z,39.47
2018-02-16T19:52:29.672Z,40.70
2018-02-16T19:54:57.792Z,54.10
2018-02-16T19:57:25.810Z,44.47
2018-02-16T19:59:54.856Z,52.13
2018-02-16T20:02:23.364Z,43.87
2018-02-16T20:04:51.380Z,51.83
2018-02-16T20:07:19.404Z,36.67
2018-02-16T20:09:47.616Z,44.57
2018-02-16T20:12:15.684Z,44.33
2018-02-16T20:14:44.582Z,48.60
2018-02-16T20:17:12.726Z,43.03
2018-02-16T20:19:41.484Z,45.77
2018-02-16T20:22:09.535Z,42.13
2018-02-16T20:24:37.690Z,43.63
2018-02-16T20:27:05.680Z,44.77
2018-02-16T20:29:33.685Z,51.03
2018-02-16T20:32:01.942Z,44.93
2018-02-16T20:34:29.936Z,47.20
2018-02-16T20:36:57.927Z,60.70
2018-02-16T20:39:26.794Z,42.03
2018-02-16T20:41:54.912Z,50.53
2018-02-16T20:44:23.667Z,51.40
2018-02-16T20:46:51.826Z,46.30
2018-02-16T20:49:19.968Z,52.07
2018-02-16T20:51:48.180Z,49.90
2018-02-16T20:54:16.309Z,41.60
2018-02-16T20:56:44.330Z,45.67
2018-02-16T20:59:12.354Z,45.27
2018-02-16T21:01:40.545Z,47.93
2018-02-16T21:04:08.551Z,49.53
2018-02-16T21:06:36.722Z,48.50
2018-02-16T21:09:05.118Z,48.87
2018-02-16T21:11:33.230Z,51.70
2018-02-16T21:14:01.242Z,53.10
2018-02-16T21:16:29.369Z,45.53
2018-02-16T21:18:57.398Z,49.23
2018-02-16T21:21:25.532Z,49.00
2018-02-16T21:23:53.665Z,48.20
2018-02-16T21:26:22.417Z,50.40
2018-02-16T21:28:50.422Z,50.27
2018-02-16T21:31:18.562Z,51.50
2018-02-16T21:46:38.217Z,40.90
2018-02-16T21:49:06.219Z,46.10
2018-02-16T21:51:34.378Z,45.73
2018-02-16T21:54:02.492Z,48.07
2018-02-16T21:56:31.278Z,40.03
2018-02-16T21:59:00.032Z,45.77
2018-02-16T22:01:28.192Z,42.87
2018-02-16T22:03:56.196Z,41.80
2018-02-16T22:06:24.217Z,37.97
2018-02-16T22:08:52.340Z,49.00
2018-02-16T22:11:20.332Z,50.10
2018-02-16T22:13:48.382Z,47.90
2018-02-16T22:16:16.519Z,46.47
2018-02-16T22:18:44.538Z,40.17
2018-02-16T22:21:12.540Z,44.53
2018-02-16T22:23:41.406Z,48.07
2018-02-16T22:26:09.556Z,49.13
2018-02-16T22:28:37.555Z,49.87
2018-02-16T22:31:06.520Z,49.80
2018-02-16T22:33:34.533Z,40.07
2018-02-16T22:36:03.269Z,44.27
2018-02-16T22:38:31.399Z,55.30
2018-02-16T22:41:00.146Z,43.83
2018-02-16T22:43:28.178Z,55.90
2018-02-16T22:45:56.314Z,48.03
2018-02-16T22:48:24.312Z,53.87
2018-02-16T22:50:52.307Z,55.10
2018-02-16T22:53:20.568Z,49.83
2018-02-16T22:55:48.734Z,65.30
2018-02-16T22:58:16.746Z,60.50
2018-02-16T23:00:44.886Z,60.43
2018-02-16T23:03:12.893Z,54.20
2018-02-16T23:05:40.884Z,54.00
2018-02-16T23:08:09.011Z,62.53
2018-02-16T23:10:37.005Z,42.60
2018-02-16T23:13:05.008Z,47.33
2018-02-16T23:15:33.144Z,51.63
2018-02-16T23:18:01.160Z,41.50
2018-02-16T23:20:29.900Z,45.27
2018-02-16T23:22:58.033Z,42.33
2018-02-16T23:25:26.772Z,45.30
2018-02-16T23:27:54.781Z,52.10
2018-02-16T23:30:22.917Z,44.33
2018-02-16T23:32:50.917Z,50.33
2018-02-16T23:35:18.924Z,46.13
2018-02-16T23:37:47.047Z,52.10
2018-02-16T23:40:15.052Z,56.53
2018-02-16T23:42:43.740Z,48.63
2018-02-16T23:45:11.877Z,56.20
2018-02-16T23:47:40.614Z,45.83
2018-02-16T23:50:08.643Z,54.73
2018-02-16T23:52:36.784Z,55.73
2018-02-16T23:55:04.939Z,41.53
2018-02-16T23:57:33.110Z,50.90
